Time;durP1;ratioP1;P1;durP2;ratioP2;P2;SDS_P1;SDS_P2;PMS_P1;PMS_P2;Temp;Humidity;BMP_temperature;BMP_pressure;BME280_temperature;BME280_humidity;BME280_pressure;Samples;Min_cycle;Max_cycle;Signal;HPM_P1;HPM_P2
2023/11/15 09:24:29;;;;;;;2.03;1.20;;;;;;;11.65;85.91;98762.13;5109241;28;20603;-86
2023/11/15 09:27:01;;;;;;;1.83;1.00;;;;;;;12.09;82.51;98782.97;5074088;28;39612;-86
2023/11/15 09:29:33;;;;;;;4.97;1.10;;;;;;;12.72;79.00;98782.03;5125048;27;43641;-85
2023/11/15 09:32:02;;;;;;;2.00;1.03;;;;;;;13.37;74.45;98824.19;5087472;28;41871;-86
2023/11/15 09:34:32;;;;;;;1.27;0.83;;;;;;;13.66;73.65;98828.19;5070862;28;41937;-85
2023/11/15 09:37:09;;;;;;;4.03;1.30;;;;;;;13.93;70.78;98820.78;5079786;28;39036;-86
2023/11/15 09:39:38;;;;;;;2.50;0.80;;;;;;;14.30;68.65;98824.09;5072288;28;40428;-87
2023/11/15 09:42:09;;;;;;;3.63;1.10;;;;;;;14.61;66.24;98817.22;5089822;28;42241;-86
2023/11/15 09:44:41;;;;;;;6.17;0.80;;;;;;;14.50;65.19;98792.41;5090074;28;42506;-86
2023/11/15 09:47:09;;;;;;;3.50;1.07;;;;;;;14.61;65.02;98819.88;5086683;28;38671;-82
2023/11/15 09:49:38;;;;;;;3.43;1.30;;;;;;;14.77;64.89;98824.00;5069475;28;40857;-85
2023/11/15 09:52:11;;;;;;;3.77;0.90;;;;;;;14.77;64.98;98824.00;5086439;28;43204;-85
2023/11/15 09:54:41;;;;;;;2.17;0.67;;;;;;;15.20;64.24;98845.41;5052934;28;42050;-87
2023/11/15 09:57:09;;;;;;;3.80;0.87;;;;;;;15.39;63.10;98824.22;5071078;28;38736;-87
2023/11/15 10:02:28;;;;;;;2.13;0.70;;;;;;;16.96;58.13;98878.44;5085203;28;44504;-88
2023/11/15 10:05:27;;;;;;;1.87;0.90;;;;;;;17.09;56.24;98878.19;5103595;28;42568;-88
2023/11/15 10:08:19;;;;;;;3.90;0.80;;;;;;;17.06;55.05;98894.53;5079531;28;39355;-90
2023/11/15 10:11:26;;;;;;;1.33;0.77;;;;;;;18.67;51.71;98885.00;5110050;27;42789;-86
2023/11/15 10:14:09;;;;;;;3.50;0.70;;;;;;;19.06;49.90;98917.06;5114613;27;41974;-87
2023/11/15 10:16:48;;;;;;;3.60;0.87;;;;;;;19.11;50.33;98901.38;5115258;27;41290;-88
2023/11/15 10:19:47;;;;;;;2.13;0.90;;;;;;;20.13;46.61;98937.78;5115922;27;39623;-87
2023/11/15 10:22:16;;;;;;;2.47;0.97;;;;;;;19.26;48.38;98910.63;5135356;27;41632;-87
2023/11/15 10:24:43;;;;;;;2.57;0.80;;;;;;;19.21;49.14;98927.16;5136613;27;41478;-86
2023/11/15 10:27:25;;;;;;;4.30;1.20;;;;;;;21.72;45.48;98903.22;5149636;27;41968;-87
2023/11/15 10:29:54;;;;;;;3.50;1.00;;;;;;;22.51;42.75;98960.13;5143642;27;41311;-90
2023/11/15 10:32:23;;;;;;;1.87;0.87;;;;;;;21.77;42.36;98954.78;5134977;27;40923;-83
2023/11/15 10:34:53;;;;;;;4.97;1.10;;;;;;;21.13;44.37;98959.75;5103406;27;44182;-84
2023/11/15 10:37:21;;;;;;;2.03;0.67;;;;;;;20.09;44.68;98906.81;5101389;27;41157;-85
2023/11/15 10:40:30;;;;;;;1.47;0.63;;;;;;;19.64;45.27;98890.78;5116375;27;39588;-86
2023/11/15 10:43:19;;;;;;;3.00;0.80;;;;;;;19.55;45.44;98948.91;5116161;27;42324;-91
2023/11/15 10:46:08;;;;;;;1.23;0.60;;;;;;;18.94;46.59;98937.88;5099203;27;41945;-87
2023/11/15 10:49:09;;;;;;;3.37;0.70;;;;;;;18.46;48.53;98929.91;5116107;27;42563;-90
2023/11/15 10:52:00;;;;;;;4.00;0.97;;;;;;;18.30;50.28;98904.53;5116278;27;39010;-89
2023/11/15 10:55:22;;;;;;;2.17;0.70;;;;;;;18.06;50.01;98895.25;5112286;27;41528;-85
2023/11/15 11:00:54;;;;;;;2.83;0.93;;;;;;;19.00;49.26;98905.94;5111536;28;41084;-88
2023/11/15 11:04:04;;;;;;;1.90;1.00;;;;;;;18.96;49.40;98879.53;5112669;28;39223;-87
2023/11/15 11:06:47;;;;;;;2.73;0.80;;;;;;;18.80;48.89;98903.44;5096174;28;41216;-87
2023/11/15 11:09:37;;;;;;;1.93;0.83;;;;;;;19.87;47.37;98910.81;5114468;27;41781;-86
2023/11/15 11:12:18;;;;;;;2.50;1.00;;;;;;;22.75;41.44;98939.56;5113532;27;42499;-90
2023/11/15 11:14:49;;;;;;;4.27;1.00;;;;;;;23.42;40.31;98961.66;5116449;27;39246;-87
2023/11/15 11:17:49;;;;;;;2.93;1.17;;;;;;;26.29;35.81;98988.56;5099758;27;40811;-87
2023/11/15 11:20:56;;;;;;;1.20;0.67;;;;;;;26.67;34.00;98989.97;5116251;27;41994;-90
2023/11/15 11:23:23;;;;;;;2.07;0.90;;;;;;;26.76;33.81;98956.19;5113970;27;41170;-88
2023/11/15 11:25:55;;;;;;;3.13;1.00;;;;;;;27.89;32.69;98974.06;5115094;27;40503;-88
2023/11/15 11:28:23;;;;;;;3.23;1.17;;;;;;;27.48;32.05;98982.22;5116257;27;41002;-89
2023/11/15 11:31:17;;;;;;;2.80;0.80;;;;;;;27.97;30.70;98992.94;5115327;27;42750;-84
2023/11/15 11:34:18;;;;;;;2.47;1.20;;;;;;;28.23;32.12;98965.81;5115774;27;41577;-85
2023/11/15 11:37:12;;;;;;;3.03;1.00;;;;;;;28.98;30.65;98992.97;5115559;27;39232;-88
2023/11/15 11:50:55;;;;;;;2.83;0.90;;;;;;;23.72;36.79;98950.09;5132726;27;40585;-86
2023/11/15 11:53:24;;;;;;;1.73;1.00;;;;;;;22.75;38.07;98928.75;5133492;27;42052;-88
2023/11/15 11:55:54;;;;;;;3.20;0.83;;;;;;;21.67;39.73;98922.56;5134952;27;44363;-87
2023/11/15 11:58:24;;;;;;;2.83;0.80;;;;;;;20.44;41.46;98863.75;5135881;27;41231;-86
2023/11/15 12:01:08;;;;;;;0.77;0.50;;;;;;;19.69;44.00;98866.97;5135393;27;40383;-87
2023/11/15 12:03:47;;;;;;;1.53;0.50;;;;;;;19.10;45.71;98905.03;5135833;27;41938;-87
2023/11/15 12:06:15;;;;;;;1.90;0.63;;;;;;;18.42;47.36;98901.72;5135739;27;41692;-88
2023/11/15 12:08:48;;;;;;;1.57;0.53;;;;;;;17.60;49.65;98862.78;5135859;27;41515;-84
2023/11/15 12:11:21;;;;;;;0.80;0.50;;;;;;;17.09;53.50;98878.19;5153222;27;41572;-86
2023/11/15 12:13:50;;;;;;;3.10;0.50;;;;;;;16.16;55.75;98832.84;5154598;27;41805;-83
2023/11/15 12:16:20;;;;;;;2.87;0.37;;;;;;;15.58;57.74;98835.09;5136058;27;44334;-88
2023/11/15 12:19:24;;;;;;;0.40;0.30;;;;;;;15.08;60.59;98820.56;5136833;27;42362;-86
2023/11/15 12:21:54;;;;;;;0.87;0.37;;;;;;;15.03;62.41;98850.28;5076360;28;40900;-86
2023/11/15 12:24:24;;;;;;;1.13;0.50;;;;;;;14.97;64.17;98849.91;5076631;28;42954;-83
2023/11/15 12:26:52;;;;;;;2.10;0.60;;;;;;;14.61;66.15;98809.22;5076881;28;44849;-86
2023/11/15 12:29:22;;;;;;;1.87;0.60;;;;;;;14.71;66.97;98838.69;5060655;28;41834;-87
2023/11/15 12:32:10;;;;;;;1.17;0.67;;;;;;;14.66;68.69;98819.53;5076869;27;40859;-89
2023/11/15 12:34:38;;;;;;;2.33;0.47;;;;;;;14.98;67.27;98836.44;5093422;28;41671;-84
2023/11/15 12:37:07;;;;;;;0.67;0.50;;;;;;;14.98;68.26;98836.44;5073274;28;41849;-83
2023/11/15 12:39:39;;;;;;;2.00;0.73;;;;;;;14.88;69.58;98846.16;5072646;27;40993;-85
2023/11/15 12:42:08;;;;;;;4.63;1.10;;;;;;;14.46;71.39;98807.81;5115811;27;39905;-84
2023/11/15 12:45:02;;;;;;;2.13;1.20;;;;;;;14.33;72.15;98825.69;5135331;27;42659;-87
2023/11/15 12:47:35;;;;;;;3.03;1.40;;;;;;;14.12;73.96;98819.34;5133545;27;43821;-84
2023/11/15 12:50:03;;;;;;;3.37;1.30;;;;;;;13.98;75.71;98802.63;5152564;27;42144;-85
2023/11/15 12:52:34;;;;;;;1.83;1.33;;;;;;;13.80;76.58;98797.88;5152054;27;39025;-84
2023/11/15 12:55:08;;;;;;;1.67;1.03;;;;;;;13.81;78.43;98820.88;5134955;27;41970;-85
2023/11/15 12:57:50;;;;;;;2.37;0.90;;;;;;;13.37;80.00;98805.59;5132400;27;43146;-86
2023/11/15 13:00:40;;;;;;;1.00;0.80;;;;;;;13.13;80.42;98795.78;5114765;27;41181;-85
2023/11/15 13:03:39;;;;;;;1.40;1.10;;;;;;;13.04;81.47;98808.91;5132285;27;40392;-85
2023/11/15 13:06:11;;;;;;;1.87;0.80;;;;;;;12.93;81.96;98809.69;5134782;27;40540;-86
2023/11/15 13:08:40;;;;;;;1.80;0.80;;;;;;;12.46;82.85;98750.22;5112941;27;41189;-86
2023/11/15 13:11:09;;;;;;;1.43;0.80;;;;;;;12.72;82.34;98805.94;5113789;27;41226;-85
2023/11/15 13:13:38;;;;;;;1.47;1.03;;;;;;;12.77;82.69;98814.41;5134853;27;39181;-84
2023/11/15 13:16:08;;;;;;;1.70;0.87;;;;;;;12.76;81.74;98804.72;5135950;27;42357;-84
2023/11/15 13:18:37;;;;;;;3.60;0.90;;;;;;;12.82;81.94;98814.94;5154153;27;43498;-82
2023/11/15 13:21:06;;;;;;;0.70;0.70;;;;;;;12.63;81.76;98782.66;5155109;27;42292;-84
2023/11/15 13:23:36;;;;;;;3.43;0.90;;;;;;;12.61;81.82;98777.47;5137609;27;40470;-85
2023/11/15 13:26:05;;;;;;;1.07;0.90;;;;;;;12.52;81.45;98792.25;5155725;27;41704;-87
2023/11/15 13:28:34;;;;;;;1.37;1.10;;;;;;;12.21;81.72;98755.56;5161463;27;42691;-87
2023/11/15 13:31:02;;;;;;;4.33;0.87;;;;;;;12.38;82.44;98797.69;5135475;27;41430;-85
2023/11/15 13:33:30;;;;;;;4.23;1.00;;;;;;;12.46;83.39;98813.97;5133982;27;40170;-83
2023/11/15 13:35:57;;;;;;;2.67;1.10;;;;;;;12.42;84.40;98812.47;5134137;27;42101;-88
2023/11/15 13:38:25;;;;;;;1.80;1.10;;;;;;;12.36;84.56;98806.75;5134440;27;44500;-84
2023/11/15 13:40:54;;;;;;;2.60;1.57;;;;;;;12.34;84.32;98809.50;5151284;27;41895;-85
2023/11/15 13:43:42;;;;;;;1.87;1.10;;;;;;;12.40;85.00;98825.00;5134745;27;39328;-85
2023/11/15 13:46:11;;;;;;;2.83;1.00;;;;;;;12.20;84.88;98785.72;5134378;27;41150;-85
2023/11/15 13:48:54;;;;;;;4.83;0.90;;;;;;;12.40;85.67;98808.22;5152057;27;42793;-86
2023/11/15 13:51:46;;;;;;;1.90;0.97;;;;;;;12.44;86.14;98831.81;5133667;27;41402;-88
2023/11/15 13:54:19;;;;;;;2.00;0.90;;;;;;;12.48;86.96;98841.25;5135103;27;38925;-85
2023/11/15 13:57:01;;;;;;;2.23;1.00;;;;;;;12.33;88.30;98834.38;5133108;27;40810;-90
2023/11/15 13:59:32;;;;;;;2.43;0.87;;;;;;;11.99;90.19;98787.25;5134834;27;41847;-88
2023/11/15 14:02:03;;;;;;;5.87;1.20;;;;;;;12.11;89.45;98824.41;5113210;27;42260;-89
2023/11/15 14:04:48;;;;;;;1.23;0.90;;;;;;;12.20;89.53;98842.34;5114225;27;39367;-89
2023/11/15 14:07:31;;;;;;;2.67;1.00;;;;;;;11.74;89.82;98772.13;5133199;27;42771;-89
2023/11/15 14:10:20;;;;;;;1.70;1.07;;;;;;;12.20;89.99;98855.63;5136125;27;41764;-86
2023/11/15 14:13:15;;;;;;;2.80;0.90;;;;;;;12.31;90.75;98851.34;5138796;27;42728;-89
2023/11/15 14:15:44;;;;;;;1.43;0.93;;;;;;;12.64;91.16;98842.81;5138487;27;39968;-90
2023/11/15 14:20:59;;;;;;;1.73;0.93;;;;;;;12.83;87.97;98865.31;5138053;27;41343;-88
2023/11/15 14:29:56;;;;;;;1.53;0.90;;;;;;;13.10;87.50;98838.56;5151874;27;41622;-87
2023/11/15 14:32:23;;;;;;;3.87;1.20;;;;;;;13.28;85.98;98863.81;5123584;27;42147;-85
2023/11/15 14:35:12;;;;;;;1.80;1.07;;;;;;;13.07;85.92;98846.75;5116488;27;43186;-85
2023/11/15 14:37:41;;;;;;;2.20;0.87;;;;;;;12.98;85.50;98874.00;5131518;27;39039;-86
2023/11/15 14:40:11;;;;;;;1.80;0.67;;;;;;;12.75;85.12;98862.34;5158544;27;41905;-86
2023/11/15 14:42:42;;;;;;;1.30;0.90;;;;;;;12.74;86.29;98889.03;5127544;27;41764;-87
2023/11/15 14:45:12;;;;;;;3.20;1.00;;;;;;;12.49;86.20;98881.94;5120167;27;42961;-86
2023/11/15 14:47:40;;;;;;;1.53;0.80;;;;;;;12.33;86.48;98876.84;5136748;27;39403;-85
2023/11/15 14:50:32;;;;;;;1.63;0.90;;;;;;;12.29;87.38;98896.59;5137234;27;40468;-85
2023/11/15 14:53:18;;;;;;;0.67;0.67;;;;;;;12.08;87.24;98880.34;5090199;27;41642;-85
2023/11/15 14:55:46;;;;;;;1.20;0.73;;;;;;;12.02;87.79;98887.88;5098089;27;43243;-86
2023/11/15 14:58:14;;;;;;;0.60;0.60;;;;;;;11.91;87.90;98885.09;5080918;27;39008;-85
2023/11/15 15:00:50;;;;;;;0.70;0.70;;;;;;;11.56;87.38;98835.22;5097891;27;40813;-90
2023/11/15 15:03:21;;;;;;;0.97;0.70;;;;;;;11.54;87.83;98855.69;5098557;27;43095;-84
2023/11/15 15:05:51;;;;;;;1.50;0.83;;;;;;;11.42;87.85;98854.69;5097638;27;43304;-84
2023/11/15 15:08:25;;;;;;;2.70;0.60;;;;;;;11.62;88.37;98895.78;5097376;27;38916;-83
2023/11/15 15:10:54;;;;;;;2.67;0.80;;;;;;;11.54;88.45;98892.81;5118511;27;42052;-83
2023/11/15 15:13:21;;;;;;;2.93;0.70;;;;;;;11.53;88.15;98891.09;5147944;27;43505;-82
2023/11/15 15:15:49;;;;;;;1.73;0.90;;;;;;;11.54;88.58;98898.13;5137820;27;43745;-87
2023/11/15 15:18:16;;;;;;;1.00;0.90;;;;;;;11.51;88.74;98893.00;5138443;27;39902;-87
2023/11/15 15:20:45;;;;;;;2.03;1.10;;;;;;;11.63;88.91;98910.75;5138385;27;40816;-83
2023/11/15 15:23:14;;;;;;;2.50;0.80;;;;;;;11.62;88.87;98911.72;5136348;27;41759;-87
2023/11/15 15:25:43;;;;;;;1.20;0.87;;;;;;;11.53;89.79;98920.28;5136303;27;41034;-85
2023/11/15 15:28:10;;;;;;;1.53;0.87;;;;;;;11.55;91.01;98936.94;5136807;27;40236;-87
2023/11/15 15:30:39;;;;;;;3.03;0.80;;;;;;;11.49;92.73;98932.06;5137123;27;40880;-87
2023/11/15 15:33:06;;;;;;;3.00;1.07;;;;;;;11.47;93.01;98944.56;5136462;27;41849;-88
2023/11/15 15:35:34;;;;;;;4.30;1.20;;;;;;;11.26;94.44;98925.56;5136752;27;40852;-88
2023/11/15 15:38:02;;;;;;;2.73;1.03;;;;;;;11.30;95.10;98915.63;5137715;27;41464;-88
2023/11/15 15:40:35;;;;;;;1.23;1.00;;;;;;;11.25;96.05;98928.34;5157583;27;41698;-89
2023/11/15 15:43:03;;;;;;;2.03;1.00;;;;;;;11.11;96.71;98922.13;5157173;27;42842;-91
2023/11/15 15:45:31;;;;;;;1.63;0.90;;;;;;;11.07;96.21;98923.25;5185260;27;42209;-87
2023/11/15 15:47:58;;;;;;;2.67;1.30;;;;;;;10.83;97.03;98905.41;5169603;27;39223;-85
2023/11/15 15:50:26;;;;;;;1.57;1.30;;;;;;;10.87;96.64;98934.25;5167024;27;43092;-84
2023/11/15 15:52:54;;;;;;;3.87;1.00;;;;;;;10.88;96.86;98954.47;5148503;27;42181;-87
2023/11/15 15:55:22;;;;;;;2.40;1.30;;;;;;;10.68;96.97;98929.25;5183400;27;42479;-86
2023/11/15 15:57:51;;;;;;;2.77;1.10;;;;;;;10.68;96.95;98954.88;5145306;27;39372;-88
2023/11/15 16:00:19;;;;;;;2.97;1.30;;;;;;;10.54;97.38;98949.56;5141496;27;40468;-87
2023/11/15 16:02:48;;;;;;;2.37;1.40;;;;;;;10.62;98.00;98963.22;5153881;27;42611;-87
2023/11/15 16:05:17;;;;;;;1.57;1.10;;;;;;;10.46;99.23;98947.38;5135849;27;43400;-87
2023/11/15 16:07:45;;;;;;;3.60;1.37;;;;;;;10.38;99.09;98936.44;5136142;27;38897;-89
2023/11/15 16:10:13;;;;;;;1.20;0.80;;;;;;;10.42;99.15;98948.50;5135459;27;43688;-86
2023/11/15 16:12:41;;;;;;;1.37;1.00;;;;;;;10.43;99.30;98951.06;5137275;27;42062;-90
2023/11/15 16:15:16;;;;;;;2.67;1.10;;;;;;;10.46;99.16;98949.19;5136691;27;40848;-86
2023/11/15 16:17:43;;;;;;;1.43;1.07;;;;;;;10.48;99.24;98956.09;5137307;27;38899;-88
2023/11/15 16:20:12;;;;;;;1.07;1.00;;;;;;;10.48;99.19;98963.19;5136501;27;41665;-87
2023/11/15 16:22:40;;;;;;;2.90;1.30;;;;;;;10.58;99.27;98980.22;5146485;27;43545;-85
2023/11/15 16:25:10;;;;;;;1.30;0.80;;;;;;;10.54;98.86;98984.00;5158192;27;42400;-87
2023/11/15 16:27:38;;;;;;;1.43;1.10;;;;;;;10.58;98.75;98990.81;5142098;27;39701;-87
2023/11/15 16:30:08;;;;;;;1.23;0.80;;;;;;;10.65;98.72;99011.53;5136993;27;40732;-87
2023/11/15 16:32:37;;;;;;;0.90;0.70;;;;;;;10.70;98.15;99013.91;5136522;27;44352;-90
2023/11/15 16:35:08;;;;;;;0.90;0.90;;;;;;;10.55;97.50;98977.75;5135074;27;42749;-89
2023/11/15 16:37:36;;;;;;;0.97;0.97;;;;;;;10.67;97.43;98995.53;5136164;27;39137;-87
2023/11/15 16:40:05;;;;;;;2.37;0.90;;;;;;;10.67;96.67;99000.84;5137059;27;41753;-87
2023/11/15 16:42:32;;;;;;;2.33;1.00;;;;;;;10.69;96.36;99014.84;5156716;27;43596;-87
2023/11/15 16:45:00;;;;;;;2.50;1.03;;;;;;;10.80;96.03;99028.28;5156188;27;43769;-88
2023/11/15 16:47:28;;;;;;;3.90;1.17;;;;;;;10.64;96.11;99011.63;5156583;27;38950;-85
2023/11/15 16:49:58;;;;;;;2.07;1.30;;;;;;;10.58;96.11;99019.94;5156402;27;40704;-90
2023/11/15 16:52:25;;;;;;;3.50;1.40;;;;;;;10.50;96.01;99014.25;5137207;27;43404;-88
2023/11/15 16:54:53;;;;;;;1.77;1.10;;;;;;;10.40;96.27;99024.53;5136475;27;41174;-90
2023/11/15 16:57:20;;;;;;;2.83;1.20;;;;;;;10.34;96.56;99035.50;5135683;27;39159;-87
2023/11/15 16:59:48;;;;;;;5.77;2.00;;;;;;;10.20;96.34;99033.66;5135521;27;40995;-87
2023/11/15 17:02:17;;;;;;;2.50;1.00;;;;;;;10.10;96.37;99037.75;5135359;27;41572;-87
2023/11/15 17:04:44;;;;;;;2.70;1.27;;;;;;;10.06;96.69;99042.34;5152866;27;43268;-85
2023/11/15 17:07:13;;;;;;;3.03;1.10;;;;;;;10.05;96.82;99050.38;5152912;27;38963;-86
2023/11/15 17:09:42;;;;;;;1.87;1.17;;;;;;;9.92;96.42;99044.06;5135383;27;43697;-88
2023/11/15 17:12:11;;;;;;;1.90;1.07;;;;;;;9.83;96.22;99040.16;5135666;27;43525;-87
2023/11/15 17:14:39;;;;;;;1.63;1.10;;;;;;;9.80;96.07;99055.34;5154027;27;40990;-87
2023/11/15 17:17:06;;;;;;;1.40;1.23;;;;;;;9.75;96.44;99052.97;5163435;27;38953;-87
2023/11/15 17:19:34;;;;;;;3.53;1.47;;;;;;;9.70;98.61;99041.78;5157203;27;42324;-87
2023/11/15 17:22:01;;;;;;;3.40;1.30;;;;;;;9.69;98.54;99054.16;5167171;27;42734;-86
2023/11/15 17:24:31;;;;;;;2.53;1.50;;;;;;;9.72;98.63;99054.00;5136539;27;41402;-88
2023/11/15 17:26:58;;;;;;;2.47;1.50;;;;;;;9.82;98.86;99066.69;5156878;27;39160;-87
